createdAt,value
2018-04-18T00:00:40.151Z,7.55
2018-04-18T00:01:40.073Z,7.52
2018-04-18T00:02:40.075Z,7.51
2018-04-18T00:03:40.147Z,7.53
2018-04-18T00:04:40.074Z,7.52
2018-04-18T00:05:40.148Z,7.49
2018-04-18T00:06:40.148Z,7.48
2018-04-18T00:07:40.146Z,7.42
2018-04-18T00:08:40.081Z,7.38
2018-04-18T00:09:40.146Z,7.37
2018-04-18T00:10:40.081Z,7.33
2018-04-18T00:11:40.082Z,7.29
2018-04-18T00:12:40.080Z,7.26
2018-04-18T00:13:40.081Z,7.24
2018-04-18T00:14:40.153Z,7.26
2018-04-18T00:15:40.124Z,7.23
2018-04-18T00:16:40.118Z,7.26
2018-04-18T00:17:40.130Z,7.27
2018-04-18T00:18:40.130Z,7.23
2018-04-18T00:19:40.159Z,7.23
2018-04-18T00:20:40.071Z,7.19
2018-04-18T00:21:40.120Z,7.19
2018-04-18T00:22:40.162Z,7.19
2018-04-18T00:23:40.130Z,7.18
2018-04-18T00:24:40.059Z,7.18
2018-04-18T00:25:40.095Z,7.16
2018-04-18T00:26:40.094Z,7.16
2018-04-18T00:27:40.162Z,7.15
2018-04-18T00:28:40.090Z,7.15
2018-04-18T00:29:40.091Z,7.12
2018-04-18T00:30:40.167Z,7.13
2018-04-18T00:31:40.163Z,7.13
2018-04-18T00:32:40.092Z,7.13
2018-04-18T00:33:40.171Z,7.13
2018-04-18T00:34:40.093Z,7.16
2018-04-18T00:35:40.124Z,7.18
2018-04-18T00:36:40.198Z,7.16
2018-04-18T00:37:40.186Z,7.15
2018-04-18T00:38:40.202Z,7.15
2018-04-18T00:39:40.165Z,7.18
2018-04-18T00:40:40.207Z,7.29
2018-04-18T00:41:40.132Z,7.31
2018-04-18T00:42:40.167Z,7.29
2018-04-18T00:43:40.108Z,7.26
2018-04-18T00:44:40.167Z,7.24
2018-04-18T00:45:40.071Z,7.18
2018-04-18T00:46:40.138Z,7.11
2018-04-18T00:47:40.197Z,7.11
2018-04-18T00:48:40.137Z,7.11
2018-04-18T00:49:40.129Z,7.19
2018-04-18T00:50:40.178Z,7.24
2018-04-18T00:51:40.197Z,7.24
2018-04-18T00:52:40.199Z,7.22
2018-04-18T00:53:40.143Z,7.18
2018-04-18T00:54:40.207Z,7.13
2018-04-18T00:55:40.096Z,7.07
2018-04-18T00:56:40.218Z,7.02
2018-04-18T00:57:40.118Z,7.00
2018-04-18T00:58:40.141Z,6.94
2018-04-18T00:59:40.100Z,6.90
2018-04-18T01:00:40.152Z,6.94
2018-04-18T01:01:40.104Z,6.94
2018-04-18T01:02:40.234Z,6.91
2018-04-18T01:03:40.147Z,6.90
2018-04-18T01:04:40.108Z,6.91
2018-04-18T01:05:40.193Z,6.89
2018-04-18T01:06:40.185Z,6.87
2018-04-18T01:07:40.118Z,6.84
2018-04-18T01:08:40.115Z,6.84
2018-04-18T01:09:40.115Z,6.89
2018-04-18T01:10:40.190Z,6.90
2018-04-18T01:11:40.120Z,6.89
2018-04-18T01:12:40.120Z,6.90
2018-04-18T01:13:40.193Z,6.90
2018-04-18T01:14:40.192Z,6.90
2018-04-18T01:15:40.171Z,6.87
2018-04-18T01:16:40.208Z,6.82
2018-04-18T01:17:40.219Z,6.77
2018-04-18T01:18:40.215Z,6.72
2018-04-18T01:19:40.144Z,6.68
2018-04-18T01:20:40.220Z,6.71
2018-04-18T01:21:40.197Z,6.74
2018-04-18T01:22:40.095Z,6.70
2018-04-18T01:23:40.234Z,6.70
2018-04-18T01:24:40.156Z,6.71
2018-04-18T01:25:40.174Z,6.77
2018-04-18T01:26:40.196Z,6.86
2018-04-18T01:27:40.102Z,6.84
2018-04-18T01:28:40.135Z,6.79
2018-04-18T01:29:40.177Z,6.77
2018-04-18T01:30:40.167Z,6.70
2018-04-18T01:31:40.222Z,6.67
2018-04-18T01:32:40.245Z,6.57
2018-04-18T01:33:40.256Z,6.52
2018-04-18T01:34:40.120Z,6.48
2018-04-18T01:35:40.202Z,6.47
2018-04-18T01:36:40.204Z,6.44
2018-04-18T01:37:40.203Z,6.43
2018-04-18T01:38:40.169Z,6.44
2018-04-18T01:39:40.177Z,6.44
2018-04-18T01:40:40.210Z,6.43
2018-04-18T01:41:40.168Z,6.38
2018-04-18T01:42:40.165Z,6.34
2018-04-18T01:43:40.205Z,6.33
2018-04-18T01:44:40.128Z,6.36
2018-04-18T01:45:40.206Z,6.33
2018-04-18T01:46:40.180Z,6.33
2018-04-18T01:47:40.245Z,6.41
2018-04-18T01:48:40.233Z,6.41
2018-04-18T01:49:40.173Z,6.44
2018-04-18T01:50:40.129Z,6.43
2018-04-18T01:51:40.241Z,6.47
2018-04-18T01:52:40.211Z,6.44
2018-04-18T01:53:40.176Z,6.43
2018-04-18T01:54:40.215Z,6.40
2018-04-18T01:55:40.242Z,6.37
2018-04-18T01:56:40.190Z,6.34
2018-04-18T01:57:40.222Z,6.37
2018-04-18T01:58:40.195Z,6.40
2018-04-18T01:59:40.192Z,6.40
2018-04-18T02:00:40.156Z,6.43
2018-04-18T02:01:40.174Z,6.45
2018-04-18T02:02:40.138Z,6.52
2018-04-18T02:03:40.250Z,6.51
2018-04-18T02:04:40.195Z,6.49
2018-04-18T02:05:40.144Z,6.55
2018-04-18T02:06:40.219Z,6.55
2018-04-18T02:07:40.146Z,6.56
2018-04-18T02:08:40.216Z,6.59
2018-04-18T02:09:40.217Z,6.56
2018-04-18T02:10:40.162Z,6.59
2018-04-18T02:11:40.216Z,6.55
2018-04-18T02:12:40.130Z,6.49
2018-04-18T02:13:40.145Z,6.44
2018-04-18T02:14:40.131Z,6.38
2018-04-18T02:15:40.226Z,6.33
2018-04-18T02:16:40.133Z,6.30
2018-04-18T02:17:40.221Z,6.29
2018-04-18T02:18:40.129Z,6.29
2018-04-18T02:19:40.172Z,6.31
2018-04-18T02:20:40.227Z,6.34
2018-04-18T02:21:40.102Z,6.33
2018-04-18T02:22:40.228Z,6.29
2018-04-18T02:23:40.225Z,6.23
2018-04-18T02:24:40.222Z,6.18
2018-04-18T02:25:40.229Z,6.14
2018-04-18T02:26:40.138Z,6.14
2018-04-18T02:27:40.194Z,6.11
2018-04-18T02:28:40.169Z,6.11
2018-04-18T02:29:40.174Z,6.06
2018-04-18T02:30:40.256Z,6.02
2018-04-18T02:31:40.268Z,5.96
2018-04-18T02:32:40.236Z,5.92
2018-04-18T02:33:40.268Z,5.88
2018-04-18T02:34:40.142Z,5.86
2018-04-18T02:35:40.161Z,5.85
2018-04-18T02:36:40.232Z,5.84
2018-04-18T02:37:40.164Z,5.81
2018-04-18T02:38:40.231Z,5.82
2018-04-18T02:39:40.110Z,5.79
2018-04-18T02:40:40.160Z,5.78
2018-04-18T02:41:40.147Z,5.74
2018-04-18T02:42:40.232Z,5.74
2018-04-18T02:43:40.165Z,5.74
2018-04-18T02:44:40.164Z,5.74
2018-04-18T02:45:40.248Z,5.74
2018-04-18T02:46:40.174Z,5.74
2018-04-18T02:47:40.181Z,5.71
2018-04-18T02:48:40.251Z,5.70
2018-04-18T02:49:40.175Z,5.66
2018-04-18T02:50:40.264Z,5.64
2018-04-18T02:51:40.252Z,5.62
2018-04-18T02:52:40.183Z,5.60
2018-04-18T02:53:40.259Z,5.63
2018-04-18T02:54:40.251Z,5.71
2018-04-18T02:55:40.181Z,5.71
2018-04-18T02:56:40.254Z,5.70
2018-04-18T02:57:40.197Z,5.67
2018-04-18T02:58:40.251Z,5.66
2018-04-18T02:59:40.256Z,5.62
2018-04-18T03:00:40.257Z,5.56
2018-04-18T03:01:40.260Z,5.53
2018-04-18T03:02:40.258Z,5.49
2018-04-18T03:03:40.186Z,5.48
2018-04-18T03:04:40.256Z,5.45
2018-04-18T03:05:40.155Z,5.42
2018-04-18T03:06:40.215Z,5.44
2018-04-18T03:07:40.253Z,5.53
2018-04-18T03:08:40.197Z,5.59
2018-04-18T03:09:40.236Z,5.64
2018-04-18T03:10:40.300Z,5.71
2018-04-18T03:11:40.318Z,5.73
2018-04-18T03:12:40.222Z,5.68
2018-04-18T03:13:40.186Z,5.71
2018-04-18T03:14:40.258Z,5.67
2018-04-18T03:15:40.181Z,5.63
2018-04-18T03:16:40.181Z,5.60
2018-04-18T03:17:40.258Z,5.59
2018-04-18T03:18:40.248Z,5.55
2018-04-18T03:19:40.233Z,5.52
2018-04-18T03:20:40.292Z,5.48
2018-04-18T03:21:40.342Z,5.44
2018-04-18T03:22:40.298Z,5.41
2018-04-18T03:23:40.190Z,5.38
2018-04-18T03:24:40.264Z,5.37
2018-04-18T03:25:40.228Z,5.34
2018-04-18T03:26:40.272Z,5.33
2018-04-18T03:27:40.273Z,5.30
2018-04-18T03:28:40.193Z,5.33
2018-04-18T03:29:40.296Z,5.34
2018-04-18T03:30:40.192Z,5.34
2018-04-18T03:31:40.175Z,5.30
2018-04-18T03:32:40.274Z,5.29
2018-04-18T03:33:40.312Z,5.29
2018-04-18T03:34:40.318Z,5.27
2018-04-18T03:35:40.301Z,5.26
2018-04-18T03:36:40.173Z,5.22
2018-04-18T03:37:40.252Z,5.35
2018-04-18T03:38:40.276Z,5.33
2018-04-18T03:39:40.184Z,5.30
2018-04-18T03:40:40.185Z,5.27
2018-04-18T03:41:40.300Z,5.37
2018-04-18T03:42:40.322Z,5.37
2018-04-18T03:43:40.283Z,5.35
2018-04-18T03:44:40.246Z,5.35
2018-04-18T03:45:40.214Z,5.34
2018-04-18T03:46:40.218Z,5.34
2018-04-18T03:47:40.290Z,5.33
2018-04-18T03:48:40.281Z,5.27
2018-04-18T03:49:40.288Z,5.22
2018-04-18T03:50:40.220Z,5.18
2018-04-18T03:51:40.284Z,5.16
2018-04-18T03:52:40.223Z,5.14
2018-04-18T03:53:40.227Z,5.10
2018-04-18T03:54:40.223Z,5.14
2018-04-18T03:55:40.224Z,5.11
2018-04-18T03:56:40.265Z,5.11
2018-04-18T03:57:40.323Z,5.09
2018-04-18T03:58:40.291Z,5.10
2018-04-18T03:59:40.245Z,5.11
2018-04-18T04:00:40.227Z,5.15
2018-04-18T04:01:40.285Z,5.16
2018-04-18T04:02:40.327Z,5.16
2018-04-18T04:04:40.293Z,5.18
2018-04-18T04:05:40.155Z,5.16
2018-04-18T04:06:40.260Z,5.19
2018-04-18T04:07:40.200Z,5.19
2018-04-18T04:08:40.212Z,5.30
2018-04-18T04:09:40.149Z,5.41
2018-04-18T04:10:40.214Z,5.40
2018-04-18T04:11:40.203Z,5.38
2018-04-18T04:12:40.246Z,5.34
2018-04-18T04:13:40.204Z,5.30
2018-04-18T04:14:40.157Z,5.25
2018-04-18T04:15:40.217Z,5.21
2018-04-18T04:16:40.301Z,5.14
2018-04-18T04:17:40.329Z,5.10
2018-04-18T04:18:40.364Z,5.11
2018-04-18T04:19:40.277Z,5.09
2018-04-18T04:20:40.272Z,5.07
2018-04-18T04:21:40.204Z,5.04
2018-04-18T04:22:40.319Z,5.06
2018-04-18T04:23:40.307Z,5.02
2018-04-18T04:24:40.307Z,5.06
2018-04-18T04:25:40.269Z,5.06
2018-04-18T04:26:40.239Z,5.04
2018-04-18T04:27:40.240Z,5.11
2018-04-18T04:28:40.242Z,5.14
2018-04-18T04:29:40.312Z,5.16
2018-04-18T04:30:40.193Z,5.16
2018-04-18T04:31:40.312Z,5.22
2018-04-18T04:32:40.240Z,5.34
2018-04-18T04:33:40.312Z,5.37
2018-04-18T04:34:40.247Z,5.35
2018-04-18T04:35:40.312Z,5.34
2018-04-18T04:36:40.246Z,5.27
2018-04-18T04:37:40.316Z,5.26
2018-04-18T04:38:40.318Z,5.23
2018-04-18T04:39:40.245Z,5.23
2018-04-18T04:40:40.314Z,5.22
2018-04-18T04:41:40.248Z,5.21
2018-04-18T04:42:40.315Z,5.18
2018-04-18T04:43:40.317Z,5.16
2018-04-18T04:44:40.246Z,5.16
2018-04-18T04:45:40.251Z,5.18
2018-04-18T04:46:40.317Z,5.21
2018-04-18T04:47:40.252Z,5.22
2018-04-18T04:48:40.324Z,5.19
2018-04-18T04:49:40.257Z,5.18
2018-04-18T04:50:40.327Z,5.19
2018-04-18T04:51:40.257Z,5.21
2018-04-18T04:52:40.319Z,5.22
2018-04-18T04:53:40.258Z,5.27
2018-04-18T04:54:40.258Z,5.27
2018-04-18T04:55:40.259Z,5.29
2018-04-18T04:56:40.327Z,5.30
2018-04-18T04:57:40.329Z,5.45
2018-04-18T04:58:40.331Z,5.52
2018-04-18T04:59:40.259Z,5.56
2018-04-18T05:00:40.261Z,5.56
2018-04-18T05:01:40.215Z,5.57
2018-04-18T05:02:40.264Z,5.55
2018-04-18T05:03:40.392Z,5.55
2018-04-18T05:04:40.333Z,5.52
2018-04-18T05:05:40.261Z,5.51
2018-04-18T05:06:40.266Z,5.53
2018-04-18T05:07:40.338Z,5.53
2018-04-18T05:08:40.265Z,5.51
2018-04-18T05:09:40.267Z,5.52
2018-04-18T05:10:40.338Z,5.48
2018-04-18T05:11:40.270Z,5.48
2018-04-18T05:12:40.271Z,5.48
2018-04-18T05:13:40.341Z,5.49
2018-04-18T05:14:40.272Z,5.49
2018-04-18T05:15:40.272Z,5.49
2018-04-18T05:16:40.413Z,5.63
2018-04-18T05:17:40.340Z,5.71
2018-04-18T05:18:40.362Z,5.86
2018-04-18T05:19:40.337Z,5.97
2018-04-18T05:20:40.246Z,6.08
2018-04-18T05:21:40.372Z,6.15
2018-04-18T05:22:40.309Z,6.18
2018-04-18T05:23:40.262Z,6.20
2018-04-18T05:24:40.264Z,6.19
2018-04-18T05:25:40.251Z,6.22
2018-04-18T05:26:40.312Z,6.30
2018-04-18T05:27:40.317Z,6.30
2018-04-18T05:28:40.381Z,6.34
2018-04-18T05:29:40.346Z,6.40
2018-04-18T05:30:40.323Z,6.43
2018-04-18T05:31:40.318Z,6.56
2018-04-18T05:32:40.352Z,6.64
2018-04-18T05:33:40.343Z,6.68
2018-04-18T05:34:40.256Z,6.68
2018-04-18T05:35:40.328Z,6.71
2018-04-18T05:36:40.279Z,6.70
2018-04-18T05:37:40.359Z,6.72
2018-04-18T05:38:40.282Z,6.74
2018-04-18T05:39:40.420Z,6.77
2018-04-18T05:40:40.289Z,6.84
2018-04-18T05:41:40.367Z,6.87
2018-04-18T05:42:40.290Z,6.87
2018-04-18T05:43:40.349Z,6.89
2018-04-18T05:44:40.314Z,6.95
2018-04-18T05:45:40.375Z,7.02
2018-04-18T05:46:40.292Z,7.12
2018-04-18T05:47:40.358Z,7.15
2018-04-18T05:48:40.354Z,7.19
2018-04-18T05:49:40.379Z,7.27
2018-04-18T05:50:40.363Z,7.38
2018-04-18T05:51:40.290Z,7.52
2018-04-18T05:52:40.360Z,7.71
2018-04-18T05:53:40.394Z,8.02
2018-04-18T05:54:40.363Z,8.27
2018-04-18T05:55:40.293Z,8.42
2018-04-18T05:56:40.366Z,8.60
2018-04-18T05:57:40.364Z,8.72
2018-04-18T05:58:40.371Z,8.89
2018-04-18T05:59:40.297Z,8.89
2018-04-18T06:00:40.371Z,8.97
2018-04-18T06:01:40.367Z,9.15
2018-04-18T06:02:40.301Z,9.23
2018-04-18T06:03:40.372Z,9.43
2018-04-18T06:04:40.274Z,9.61
2018-04-18T06:05:40.372Z,9.75
2018-04-18T06:06:40.310Z,9.79
2018-04-18T06:07:40.335Z,9.79
2018-04-18T06:08:40.366Z,9.80
2018-04-18T06:09:40.370Z,9.94
2018-04-18T06:10:40.276Z,9.93
2018-04-18T06:11:40.412Z,9.87
2018-04-18T06:12:40.335Z,9.89
2018-04-18T06:13:40.346Z,10.05
2018-04-18T06:14:40.298Z,10.13
2018-04-18T06:15:40.279Z,10.11
2018-04-18T06:16:40.283Z,10.14
2018-04-18T06:17:40.409Z,10.20
2018-04-18T06:18:40.321Z,10.36
2018-04-18T06:19:40.252Z,10.47
2018-04-18T06:20:40.270Z,10.58
2018-04-18T06:21:40.252Z,10.69
2018-04-18T06:22:40.269Z,10.81
2018-04-18T06:23:40.270Z,10.98
2018-04-18T06:24:40.377Z,11.16
2018-04-18T06:25:40.290Z,11.21
2018-04-18T06:26:40.424Z,11.20
2018-04-18T06:27:40.289Z,11.33
2018-04-18T06:28:40.427Z,11.53
2018-04-18T06:29:40.303Z,11.61
2018-04-18T06:30:40.392Z,11.80
2018-04-18T06:31:40.390Z,11.94
2018-04-18T06:32:40.390Z,11.98
2018-04-18T06:33:40.405Z,12.12
2018-04-18T06:34:40.352Z,12.18
2018-04-18T06:35:40.392Z,12.25
2018-04-18T06:36:40.325Z,12.46
2018-04-18T06:37:40.392Z,12.66
2018-04-18T06:38:40.324Z,12.87
2018-04-18T06:39:40.288Z,13.13
2018-04-18T06:40:40.329Z,13.23
2018-04-18T06:41:40.327Z,13.27
2018-04-18T06:42:40.396Z,13.21
2018-04-18T06:43:40.327Z,13.29
2018-04-18T06:44:40.323Z,13.45
2018-04-18T06:45:40.405Z,13.61
2018-04-18T06:46:40.417Z,13.72
2018-04-18T06:47:40.371Z,13.76
2018-04-18T06:48:40.399Z,13.84
2018-04-18T06:49:40.377Z,13.80
2018-04-18T06:50:40.319Z,13.96
2018-04-18T06:51:40.426Z,13.99
2018-04-18T06:52:40.439Z,14.13
2018-04-18T06:53:40.371Z,13.96
2018-04-18T06:54:40.363Z,13.92
2018-04-18T06:55:40.373Z,14.10
2018-04-18T06:56:40.323Z,14.15
2018-04-18T06:57:40.400Z,14.11
2018-04-18T06:58:40.398Z,13.93
2018-04-18T06:59:40.329Z,14.03
2018-04-18T07:00:40.333Z,14.15
2018-04-18T07:01:40.346Z,14.18
2018-04-18T07:02:40.400Z,14.28
2018-04-18T07:03:40.282Z,14.29
2018-04-18T07:04:40.317Z,14.38
2018-04-18T07:05:40.312Z,14.53
2018-04-18T07:06:40.413Z,14.64
2018-04-18T07:07:40.342Z,14.78
2018-04-18T07:08:40.418Z,14.96
2018-04-18T07:09:40.342Z,15.14
2018-04-18T07:10:40.416Z,15.25
2018-04-18T07:11:40.343Z,15.32
2018-04-18T07:12:40.417Z,15.36
2018-04-18T07:13:40.449Z,15.31
2018-04-18T07:14:40.348Z,15.43
2018-04-18T07:15:40.427Z,15.44
2018-04-18T07:16:40.404Z,15.46
2018-04-18T07:17:40.373Z,15.35
2018-04-18T07:18:40.400Z,15.17
2018-04-18T07:19:40.285Z,15.14
2018-04-18T07:20:40.399Z,15.25
2018-04-18T07:21:40.403Z,15.31
2018-04-18T07:22:40.283Z,15.35
2018-04-18T07:23:40.351Z,15.55
2018-04-18T07:24:40.288Z,15.58
2018-04-18T07:25:40.412Z,15.51
2018-04-18T07:26:40.419Z,15.50
2018-04-18T07:27:40.442Z,15.70
2018-04-18T07:28:40.444Z,15.90
2018-04-18T07:29:40.423Z,16.06
2018-04-18T07:30:40.329Z,16.18
2018-04-18T07:31:40.364Z,16.28
2018-04-18T07:32:40.427Z,16.50
2018-04-18T07:33:40.459Z,16.70
2018-04-18T07:34:40.447Z,16.90
2018-04-18T07:35:40.423Z,16.79
2018-04-18T07:36:40.403Z,16.94
2018-04-18T07:37:40.391Z,17.02
2018-04-18T07:38:40.347Z,17.12
2018-04-18T07:39:40.529Z,17.05
2018-04-18T07:40:40.410Z,17.08
2018-04-18T07:41:40.353Z,17.09
2018-04-18T07:42:40.356Z,17.06
2018-04-18T07:43:40.401Z,16.95
2018-04-18T07:44:40.432Z,16.97
2018-04-18T07:45:40.437Z,16.84
2018-04-18T07:46:40.480Z,16.84
2018-04-18T07:47:40.352Z,16.90
2018-04-18T07:48:40.363Z,17.13
2018-04-18T07:49:40.473Z,17.12
2018-04-18T07:50:40.401Z,17.10
2018-04-18T07:51:40.405Z,17.02
2018-04-18T07:52:40.412Z,17.02
2018-04-18T07:53:40.463Z,17.13
2018-04-18T07:54:40.441Z,17.28
2018-04-18T07:55:40.364Z,17.25
2018-04-18T07:56:40.449Z,17.42
2018-04-18T07:57:40.468Z,17.57
2018-04-18T07:58:40.378Z,17.57
2018-04-18T07:59:40.447Z,17.53
2018-04-18T08:00:40.378Z,17.39
2018-04-18T08:01:40.377Z,17.25
2018-04-18T08:02:40.445Z,17.37
2018-04-18T08:03:40.448Z,17.57
2018-04-18T08:04:40.427Z,17.76
2018-04-18T08:05:40.377Z,17.75
2018-04-18T08:06:40.446Z,17.89
2018-04-18T08:07:40.475Z,18.06
2018-04-18T08:08:40.359Z,18.17
2018-04-18T08:09:40.371Z,18.17
2018-04-18T08:10:40.490Z,18.03
2018-04-18T08:11:40.423Z,18.14
2018-04-18T08:12:40.487Z,18.23
2018-04-18T08:13:40.470Z,18.03
2018-04-18T08:14:40.491Z,18.07
2018-04-18T08:15:40.474Z,18.21
2018-04-18T08:16:40.438Z,18.17
2018-04-18T08:18:40.485Z,17.99
2018-04-18T08:19:40.437Z,17.84
2018-04-18T08:20:40.478Z,17.71
2018-04-18T08:21:40.426Z,17.83
2018-04-18T08:22:40.377Z,17.75
2018-04-18T08:23:40.427Z,17.73
2018-04-18T08:24:40.426Z,17.98
2018-04-18T08:25:40.360Z,18.25
2018-04-18T08:26:40.421Z,18.46
2018-04-18T08:27:40.425Z,18.52
2018-04-18T08:28:40.462Z,18.81
2018-04-18T08:29:40.431Z,18.86
2018-04-18T08:30:40.504Z,18.88
2018-04-18T08:31:40.434Z,19.10
2018-04-18T08:32:40.440Z,19.25
2018-04-18T08:33:40.495Z,19.40
2018-04-18T08:34:40.443Z,19.57
2018-04-18T08:35:40.506Z,19.65
2018-04-18T08:36:40.457Z,19.49
2018-04-18T08:37:40.539Z,19.62
2018-04-18T08:38:40.373Z,19.81
2018-04-18T08:39:40.460Z,19.98
2018-04-18T08:40:40.465Z,20.18
2018-04-18T08:41:40.388Z,20.06
2018-04-18T08:42:40.375Z,20.05
2018-04-18T08:43:40.433Z,19.91
2018-04-18T08:44:40.462Z,19.94
2018-04-18T08:45:40.463Z,20.13
2018-04-18T08:46:40.467Z,20.41
2018-04-18T08:47:40.378Z,20.61
2018-04-18T08:48:40.470Z,20.83
2018-04-18T08:49:40.344Z,20.98
2018-04-18T08:50:40.468Z,21.05
2018-04-18T08:51:40.380Z,20.77
2018-04-18T08:52:40.441Z,20.82
2018-04-18T08:53:40.433Z,20.94
2018-04-18T08:54:40.346Z,21.02
2018-04-18T08:55:40.471Z,21.20
2018-04-18T08:56:40.479Z,21.32
2018-04-18T08:57:40.395Z,21.31
2018-04-18T08:58:40.456Z,21.38
2018-04-18T08:59:40.477Z,21.50
2018-04-18T09:00:40.478Z,21.73
2018-04-18T09:01:40.482Z,22.00
2018-04-18T09:02:40.451Z,22.20
2018-04-18T09:03:40.544Z,22.41
2018-04-18T09:04:40.402Z,22.61
2018-04-18T09:05:40.481Z,22.76
2018-04-18T09:06:40.482Z,22.57
2018-04-18T09:07:40.511Z,22.49
2018-04-18T09:08:40.389Z,22.60
2018-04-18T09:09:40.526Z,22.57
2018-04-18T09:10:40.485Z,22.75
2018-04-18T09:11:40.461Z,22.75
2018-04-18T09:12:40.528Z,22.94
2018-04-18T09:13:40.530Z,22.93
2018-04-18T09:14:40.465Z,23.01
2018-04-18T09:15:40.558Z,23.04
2018-04-18T09:16:40.423Z,23.23
2018-04-18T09:17:40.513Z,23.34
2018-04-18T09:18:40.422Z,23.53
2018-04-18T09:19:40.428Z,23.63
2018-04-18T09:20:40.454Z,23.58
2018-04-18T09:21:40.426Z,23.45
2018-04-18T09:22:40.423Z,23.51
2018-04-18T09:23:40.497Z,23.64
2018-04-18T09:24:40.498Z,23.75
2018-04-18T09:25:40.499Z,23.76
2018-04-18T09:26:40.427Z,23.82
2018-04-18T09:27:40.429Z,23.72
2018-04-18T09:28:40.499Z,23.61
2018-04-18T09:29:40.501Z,23.78
2018-04-18T09:30:40.501Z,23.83
2018-04-18T09:31:40.431Z,23.86
2018-04-18T09:32:40.430Z,24.00
2018-04-18T09:33:40.501Z,24.12
2018-04-18T09:34:40.507Z,24.27
2018-04-18T09:35:40.500Z,24.18
2018-04-18T09:36:40.543Z,24.20
2018-04-18T09:37:40.525Z,24.34
2018-04-18T09:38:40.540Z,24.04
2018-04-18T09:39:40.517Z,23.93
2018-04-18T09:40:40.486Z,23.94
2018-04-18T09:41:40.461Z,24.11
2018-04-18T09:42:40.509Z,24.18
2018-04-18T09:43:40.403Z,24.41
2018-04-18T09:44:40.436Z,24.27
2018-04-18T09:45:40.503Z,24.30
2018-04-18T09:46:40.508Z,24.12
2018-04-18T09:47:40.537Z,24.15
2018-04-18T09:48:40.421Z,24.38
2018-04-18T09:49:40.475Z,24.42
2018-04-18T09:50:40.471Z,24.27
2018-04-18T09:51:40.446Z,24.00
2018-04-18T09:52:40.480Z,24.14
2018-04-18T09:53:40.537Z,24.27
2018-04-18T09:54:40.490Z,24.45
2018-04-18T09:55:40.481Z,24.25
2018-04-18T09:56:40.450Z,24.41
2018-04-18T09:57:40.449Z,24.64
2018-04-18T09:58:40.447Z,24.86
2018-04-18T09:59:40.506Z,25.00
2018-04-18T10:00:40.448Z,25.06
2018-04-18T10:01:40.522Z,25.16
2018-04-18T10:02:40.449Z,25.35
2018-04-18T10:03:40.523Z,25.22
2018-04-18T10:04:40.455Z,25.13
2018-04-18T10:05:40.523Z,24.94
2018-04-18T10:06:40.528Z,24.85
2018-04-18T10:07:40.443Z,24.79
2018-04-18T10:08:40.512Z,25.02
2018-04-18T10:09:40.427Z,25.12
2018-04-18T10:10:40.477Z,24.94
2018-04-18T10:11:40.426Z,25.08
2018-04-18T10:12:40.462Z,25.16
2018-04-18T10:13:40.445Z,25.42
2018-04-18T10:14:40.529Z,25.67
2018-04-18T10:15:40.461Z,25.73
2018-04-18T10:16:40.459Z,25.63
2018-04-18T10:17:40.528Z,25.77
2018-04-18T10:18:40.457Z,26.07
2018-04-18T10:19:40.532Z,25.85
2018-04-18T10:20:40.465Z,25.68
2018-04-18T10:21:40.472Z,25.53
2018-04-18T10:22:40.466Z,25.41
2018-04-18T10:23:40.535Z,25.45
2018-04-18T10:24:40.559Z,25.60
2018-04-18T10:25:40.466Z,25.86
2018-04-18T10:26:40.549Z,26.08
2018-04-18T10:27:40.557Z,25.97
2018-04-18T10:28:40.502Z,26.06
2018-04-18T10:29:40.435Z,26.15
2018-04-18T10:30:40.505Z,26.32
2018-04-18T10:31:40.585Z,26.52
2018-04-18T10:32:40.442Z,26.75
2018-04-18T10:33:40.456Z,26.77
2018-04-18T10:34:40.555Z,26.86
2018-04-18T10:35:40.499Z,26.62
2018-04-18T10:36:40.456Z,26.67
2018-04-18T10:37:40.577Z,26.49
2018-04-18T10:38:40.512Z,26.48
2018-04-18T10:39:40.546Z,26.58
2018-04-18T10:40:40.575Z,26.45
2018-04-18T10:41:40.502Z,26.45
2018-04-18T10:42:40.506Z,26.30
2018-04-18T10:43:40.545Z,25.93
2018-04-18T10:44:40.587Z,25.86
2018-04-18T10:45:40.527Z,25.95
2018-04-18T10:46:40.522Z,26.04
2018-04-18T10:47:40.570Z,26.24
2018-04-18T10:48:40.444Z,26.33
2018-04-18T10:49:40.511Z,26.43
2018-04-18T10:50:40.481Z,26.30
2018-04-18T10:51:40.568Z,26.19
2018-04-18T10:52:40.544Z,26.40
2018-04-18T10:53:40.567Z,26.40
2018-04-18T10:54:40.452Z,26.26
2018-04-18T10:55:40.582Z,26.34
2018-04-18T10:56:40.568Z,26.48
2018-04-18T10:57:40.525Z,26.48
2018-04-18T10:58:40.580Z,26.78
2018-04-18T10:59:40.555Z,27.01
2018-04-18T11:00:40.578Z,27.04
2018-04-18T11:01:40.587Z,26.75
2018-04-18T11:02:40.452Z,26.64
2018-04-18T11:03:40.521Z,26.55
2018-04-18T11:04:40.475Z,26.45
2018-04-18T11:05:40.593Z,26.59
2018-04-18T11:06:40.521Z,26.54
2018-04-18T11:07:40.563Z,26.48
2018-04-18T11:08:40.496Z,26.45
2018-04-18T11:09:40.564Z,26.29
2018-04-18T11:10:40.560Z,26.18
2018-04-18T11:11:40.469Z,26.36
2018-04-18T11:12:40.559Z,26.49
2018-04-18T11:13:40.596Z,26.58
2018-04-18T11:14:40.603Z,26.49
2018-04-18T11:15:40.589Z,26.21
2018-04-18T11:16:40.540Z,26.13
2018-04-18T11:17:40.450Z,25.86
2018-04-18T11:18:40.468Z,25.89
2018-04-18T11:19:40.563Z,25.86
2018-04-18T11:20:40.509Z,25.70
2018-04-18T11:21:40.552Z,25.55
2018-04-18T11:22:40.516Z,25.81
2018-04-18T11:23:40.505Z,25.97
2018-04-18T11:24:40.518Z,25.85
2018-04-18T11:25:40.522Z,25.93
2018-04-18T11:26:40.476Z,26.15
2018-04-18T11:27:40.538Z,26.37
2018-04-18T11:28:40.510Z,26.47
2018-04-18T11:29:40.469Z,26.45
2018-04-18T11:30:40.550Z,26.59
2018-04-18T11:31:40.538Z,26.88
2018-04-18T11:32:40.602Z,27.15
2018-04-18T11:33:40.479Z,26.78
2018-04-18T11:34:40.478Z,26.56
2018-04-18T11:35:40.539Z,26.70
2018-04-18T11:36:40.553Z,26.66
2018-04-18T11:37:40.583Z,26.93
2018-04-18T11:38:40.513Z,27.03
2018-04-18T11:39:40.611Z,26.93
2018-04-18T11:40:40.519Z,26.85
2018-04-18T11:41:40.516Z,26.68
2018-04-18T11:42:40.582Z,26.51
2018-04-18T11:43:40.517Z,26.40
2018-04-18T11:44:40.587Z,26.44
2018-04-18T11:45:40.514Z,26.36
2018-04-18T11:46:40.520Z,26.18
2018-04-18T11:47:40.564Z,25.95
2018-04-18T11:48:40.451Z,25.66
2018-04-18T11:49:40.492Z,25.68
2018-04-18T11:50:40.576Z,25.93
2018-04-18T11:51:40.516Z,26.02
2018-04-18T11:52:40.582Z,26.11
2018-04-18T11:53:40.476Z,26.37
2018-04-18T11:54:40.490Z,26.41
2018-04-18T11:55:40.587Z,26.33
2018-04-18T11:56:40.473Z,26.37
2018-04-18T11:57:40.563Z,26.51
2018-04-18T11:58:40.568Z,26.64
2018-04-18T11:59:40.627Z,26.60
2018-04-18T12:00:40.617Z,26.82
2018-04-18T12:01:40.613Z,26.81
2018-04-18T12:02:40.617Z,26.66
2018-04-18T12:03:40.550Z,26.71
2018-04-18T12:04:40.634Z,26.79
2018-04-18T12:05:40.570Z,26.71
2018-04-18T12:06:40.628Z,26.79
2018-04-18T12:07:40.583Z,26.89
2018-04-18T12:08:40.452Z,26.95
2018-04-18T12:09:40.579Z,27.14
2018-04-18T12:10:40.577Z,27.18
2018-04-18T12:11:40.495Z,27.29
2018-04-18T12:12:40.561Z,27.52
2018-04-18T12:13:40.554Z,27.68
2018-04-18T12:14:40.576Z,27.51
2018-04-18T12:15:40.582Z,27.80
2018-04-18T12:16:40.579Z,27.88
2018-04-18T12:17:40.641Z,27.92
2018-04-18T12:18:40.623Z,27.91
2018-04-18T12:19:40.503Z,27.68
2018-04-18T12:20:40.607Z,27.77
2018-04-18T12:21:40.625Z,27.84
2018-04-18T12:22:40.546Z,27.91
2018-04-18T12:23:40.582Z,28.10
2018-04-18T12:24:40.646Z,28.04
2018-04-18T12:25:40.638Z,28.31
2018-04-18T12:26:40.590Z,28.43
2018-04-18T12:27:40.596Z,28.60
2018-04-18T12:28:40.562Z,28.61
2018-04-18T12:29:40.601Z,28.77
2018-04-18T12:30:40.598Z,28.51
2018-04-18T12:31:40.528Z,28.37
2018-04-18T12:32:40.523Z,28.10
2018-04-18T12:33:40.647Z,27.81
2018-04-18T12:34:40.608Z,27.98
2018-04-18T12:35:40.614Z,28.09
2018-04-18T12:36:40.520Z,28.29
2018-04-18T12:37:40.559Z,28.42
2018-04-18T12:38:40.618Z,28.31
2018-04-18T12:39:40.573Z,28.54
2018-04-18T12:40:40.550Z,28.72
2018-04-18T12:41:40.618Z,28.94
2018-04-18T12:42:40.548Z,29.01
2018-04-18T12:43:40.619Z,29.01
2018-04-18T12:44:40.556Z,28.77
2018-04-18T12:45:40.621Z,28.66
2018-04-18T12:46:40.550Z,27.99
2018-04-18T12:47:40.589Z,27.57
2018-04-18T12:48:40.657Z,27.48
2018-04-18T12:49:40.615Z,27.61
2018-04-18T12:50:40.624Z,27.86
2018-04-18T12:51:40.600Z,28.10
2018-04-18T12:52:40.589Z,28.28
2018-04-18T12:53:40.623Z,27.92
2018-04-18T12:54:40.640Z,27.52
2018-04-18T12:55:40.593Z,27.43
2018-04-18T12:56:40.656Z,27.59
2018-04-18T12:57:40.665Z,27.61
2018-04-18T12:58:40.589Z,27.68
2018-04-18T12:59:40.591Z,28.02
2018-04-18T13:00:40.649Z,28.22
2018-04-18T13:01:40.658Z,28.39
2018-04-18T13:02:40.590Z,28.51
2018-04-18T13:03:40.586Z,28.65
2018-04-18T13:04:40.657Z,28.77
2018-04-18T13:05:40.598Z,28.42
2018-04-18T13:06:40.665Z,28.44